createdAt,value
2022-09-21T00:00:14.299Z,95526.03
2022-09-21T00:02:41.011Z,95520.66
2022-09-21T00:05:08.898Z,95523.41
2022-09-21T00:07:35.578Z,95534.97
2022-09-21T00:10:02.218Z,95526.25
2022-09-21T00:12:31.586Z,95531.53
2022-09-21T00:14:58.679Z,95529.94
2022-09-21T00:17:25.412Z,95524.66
2022-09-21T00:19:52.471Z,95530.16
2022-09-21T00:22:19.158Z,95529.34
2022-09-21T00:24:46.045Z,95526.72
2022-09-21T00:27:12.719Z,95524.88
2022-09-21T00:29:40.966Z,95527.31
2022-09-21T00:32:07.634Z,95528.31
2022-09-21T00:34:34.248Z,95522.94
2022-09-21T00:37:00.856Z,95525.91
2022-09-21T00:39:27.505Z,95520.78
2022-09-21T00:41:54.153Z,95523.63
2022-09-21T00:44:29.145Z,95519.16
2022-09-21T00:47:01.559Z,95519.97
2022-09-21T00:49:29.138Z,95525.47
2022-09-21T00:51:58.940Z,95517.78
2022-09-21T00:54:29.994Z,95515.41
2022-09-21T00:57:01.275Z,95522.25
2022-09-21T00:59:30.305Z,95524.31
2022-09-21T01:01:59.571Z,95524.78
2022-09-21T01:04:28.435Z,95526.38
2022-09-21T01:06:56.672Z,95523.31
2022-09-21T01:09:24.049Z,95530.38
2022-09-21T01:12:04.570Z,95525.13
2022-09-21T01:15:05.692Z,95523.81
2022-09-21T01:17:43.723Z,95524.75
2022-09-21T01:20:41.965Z,95522.91
2022-09-21T01:23:24.682Z,95517.97
2022-09-21T01:26:05.616Z,95516.78
2022-09-21T01:29:12.632Z,95517.25
2022-09-21T01:31:45.547Z,95517.13
2022-09-21T01:34:17.327Z,95518.97
2022-09-21T01:36:47.464Z,95512.31
2022-09-21T01:39:16.920Z,95515.63
2022-09-21T01:41:44.755Z,95516.72
2022-09-21T01:44:15.684Z,95519.47
2022-09-21T01:46:46.904Z,95509.59
2022-09-21T01:49:17.943Z,95516.22
2022-09-21T01:51:50.406Z,95518.00
2022-09-21T01:54:21.787Z,95519.31
2022-09-21T01:56:54.740Z,95518.00
2022-09-21T01:59:28.205Z,95513.47
2022-09-21T02:02:00.426Z,95522.22
2022-09-21T02:04:27.612Z,95515.81
2022-09-21T02:06:55.148Z,95519.22
2022-09-21T02:09:23.979Z,95515.38
2022-09-21T02:11:50.553Z,95521.41
2022-09-21T02:14:22.296Z,95522.66
2022-09-21T02:16:55.468Z,95520.13
2022-09-21T02:19:35.924Z,95517.69
2022-09-21T02:22:07.379Z,95520.31
2022-09-21T02:24:41.387Z,95515.66
2022-09-21T02:27:19.862Z,95517.84
2022-09-21T02:29:51.910Z,95514.19
2022-09-21T02:32:33.971Z,95523.69
2022-09-21T02:35:09.379Z,95513.03
2022-09-21T02:37:44.290Z,95519.75
2022-09-21T02:40:22.348Z,95517.34
2022-09-21T02:42:56.587Z,95514.72
2022-09-21T02:45:27.105Z,95516.53
2022-09-21T02:47:59.601Z,95520.97
2022-09-21T02:50:35.373Z,95519.81
2022-09-21T02:53:04.977Z,95523.09
2022-09-21T02:55:33.246Z,95519.28
2022-09-21T02:58:05.383Z,95526.16
2022-09-21T03:00:33.273Z,95525.72
2022-09-21T03:02:59.878Z,95524.34
2022-09-21T03:05:29.468Z,95517.91
2022-09-21T03:07:56.067Z,95524.97
2022-09-21T03:10:22.662Z,95524.19
2022-09-21T03:12:49.230Z,95527.03
2022-09-21T03:15:18.253Z,95520.97
2022-09-21T03:17:44.964Z,95520.97
2022-09-21T03:20:11.681Z,95523.03
2022-09-21T03:22:39.583Z,95526.47
2022-09-21T03:25:09.274Z,95530.09
2022-09-21T03:27:35.889Z,95532.94
2022-09-21T03:30:02.873Z,95527.31
2022-09-21T03:32:29.626Z,95522.13
2022-09-21T03:34:56.360Z,95527.66
2022-09-21T03:37:22.940Z,95531.13
2022-09-21T03:39:50.843Z,95533.59
2022-09-21T03:42:17.487Z,95532.88
2022-09-21T03:44:44.456Z,95543.00
2022-09-21T03:47:11.147Z,95547.69
2022-09-21T03:49:38.768Z,95547.72
2022-09-21T03:52:05.364Z,95545.72
2022-09-21T03:54:32.055Z,95540.28
2022-09-21T03:57:00.250Z,95540.72
2022-09-21T03:59:26.902Z,95543.19
2022-09-21T04:01:53.683Z,95542.22
2022-09-21T04:04:20.727Z,95544.06
2022-09-21T04:06:47.370Z,95544.13
2022-09-21T04:09:13.994Z,95542.56
2022-09-21T04:11:40.645Z,95547.03
2022-09-21T04:14:08.607Z,95540.81
2022-09-21T04:16:35.333Z,95549.31
2022-09-21T04:19:01.964Z,95542.09
2022-09-21T04:21:29.394Z,95551.56
2022-09-21T04:23:56.456Z,95548.13
2022-09-21T04:26:26.707Z,95544.28
2022-09-21T04:28:55.147Z,95544.66
2022-09-21T04:31:23.945Z,95540.63
2022-09-21T04:33:52.121Z,95548.66
2022-09-21T04:36:19.951Z,95545.38
2022-09-21T04:38:47.350Z,95547.38
2022-09-21T04:41:15.206Z,95550.41
2022-09-21T04:43:43.381Z,95555.22
2022-09-21T04:46:12.639Z,95552.81
2022-09-21T04:48:42.097Z,95560.31
2022-09-21T04:51:10.543Z,95555.47
2022-09-21T04:53:39.995Z,95560.94
2022-09-21T04:56:07.937Z,95568.19
2022-09-21T04:58:34.813Z,95564.78
2022-09-21T05:01:02.252Z,95559.53
2022-09-21T05:03:28.938Z,95562.53
2022-09-21T05:05:58.032Z,95563.72
2022-09-21T05:08:44.808Z,95562.50
2022-09-21T05:11:13.628Z,95561.47
2022-09-21T05:13:40.645Z,95571.56
2022-09-21T05:16:07.481Z,95569.53
2022-09-21T05:18:34.343Z,95573.19
2022-09-21T05:21:03.843Z,95575.81
2022-09-21T05:23:31.003Z,95578.69
2022-09-21T05:25:58.252Z,95574.50
2022-09-21T05:28:26.372Z,95581.56
2022-09-21T05:31:16.687Z,95582.19
2022-09-21T05:33:51.368Z,95575.91
2022-09-21T05:36:36.588Z,95578.94
2022-09-21T05:39:03.860Z,95580.91
2022-09-21T05:41:31.113Z,95576.66
2022-09-21T05:43:58.252Z,95584.53
2022-09-21T05:46:37.559Z,95588.75
2022-09-21T05:49:12.464Z,95587.34
2022-09-21T05:51:50.131Z,95587.97
2022-09-21T05:54:26.481Z,95585.09
2022-09-21T05:57:01.303Z,95585.72
2022-09-21T05:59:48.465Z,95581.00
2022-09-21T06:02:26.172Z,95583.81
2022-09-21T06:04:56.325Z,95579.94
2022-09-21T06:07:24.621Z,95591.66
2022-09-21T06:09:51.316Z,95588.78
2022-09-21T06:12:18.156Z,95590.00
2022-09-21T06:14:44.839Z,95590.16
2022-09-21T06:17:11.437Z,95589.31
2022-09-21T06:19:38.141Z,95584.22
2022-09-21T06:22:05.035Z,95588.41
2022-09-21T06:24:33.003Z,95587.34
2022-09-21T06:26:59.622Z,95584.25
2022-09-21T06:29:26.270Z,95582.09
2022-09-21T06:31:53.028Z,95586.19
2022-09-21T06:34:19.825Z,95584.47
2022-09-21T06:36:46.455Z,95593.81
2022-09-21T06:39:13.708Z,95584.59
2022-09-21T06:41:41.709Z,95591.69
2022-09-21T06:44:10.199Z,95581.00
2022-09-21T06:46:37.132Z,95587.47
2022-09-21T06:49:03.994Z,95581.81
2022-09-21T06:51:30.678Z,95587.91
2022-09-21T06:53:58.011Z,95590.16
2022-09-21T06:56:25.482Z,95593.06
2022-09-21T06:58:57.773Z,95586.56
2022-09-21T07:01:24.953Z,95590.00
2022-09-21T07:03:52.745Z,95586.47
2022-09-21T07:06:20.417Z,95584.50
2022-09-21T07:11:33.921Z,95581.34
2022-09-21T07:14:02.040Z,95580.25
2022-09-21T07:16:28.731Z,95576.44
2022-09-21T07:18:55.404Z,95580.88
2022-09-21T07:21:22.178Z,95587.34
2022-09-21T07:23:49.017Z,95582.97
2022-09-21T07:26:16.187Z,95585.38
2022-09-21T07:28:43.022Z,95583.78
2022-09-21T07:31:14.215Z,95578.28
2022-09-21T07:33:41.413Z,95588.81
2022-09-21T07:36:12.843Z,95583.78
2022-09-21T07:38:42.099Z,95585.13
2022-09-21T07:41:10.113Z,95587.16
2022-09-21T07:43:39.338Z,95593.72
2022-09-21T07:46:06.175Z,95585.06
2022-09-21T07:48:34.237Z,95588.84
2022-09-21T07:51:04.949Z,95584.41
2022-09-21T07:53:32.148Z,95585.31
2022-09-21T07:56:02.866Z,95595.28
2022-09-21T07:58:48.679Z,95590.28
2022-09-21T08:01:15.666Z,95591.78
2022-09-21T08:03:43.964Z,95591.47
2022-09-21T08:06:10.865Z,95590.63
2022-09-21T08:08:37.717Z,95591.03
2022-09-21T08:11:05.056Z,95593.03
2022-09-21T08:13:32.064Z,95587.50
2022-09-21T08:15:59.819Z,95588.41
2022-09-21T08:18:27.149Z,95579.44
2022-09-21T08:20:56.254Z,95590.06
2022-09-21T08:23:23.426Z,95585.63
2022-09-21T08:25:51.505Z,95586.78
2022-09-21T08:28:18.716Z,95584.19
2022-09-21T08:30:45.369Z,95583.97
2022-09-21T08:33:12.050Z,95588.22
2022-09-21T08:35:38.705Z,95584.81
2022-09-21T08:38:06.710Z,95584.84
2022-09-21T08:40:34.883Z,95578.47
2022-09-21T08:43:07.276Z,95584.63
2022-09-21T08:45:37.940Z,95577.44
2022-09-21T08:48:11.057Z,95580.91
2022-09-21T08:50:42.529Z,95585.13
2022-09-21T08:53:16.549Z,95579.56
2022-09-21T08:55:43.182Z,95577.94
2022-09-21T08:58:23.316Z,95569.63
2022-09-21T09:01:02.404Z,95585.34
2022-09-21T09:04:04.202Z,95580.00
2022-09-21T09:06:42.119Z,95570.91
2022-09-21T09:09:49.305Z,95569.97
2022-09-21T09:12:34.619Z,95566.72
2022-09-21T09:15:14.606Z,95570.22
2022-09-21T09:17:53.174Z,95562.53
2022-09-21T09:20:24.383Z,95560.34
2022-09-21T09:23:00.159Z,95562.16
2022-09-21T09:25:36.175Z,95568.44
2022-09-21T09:28:21.248Z,95562.19
2022-09-21T09:30:56.349Z,95558.19
2022-09-21T09:33:27.054Z,95559.03
2022-09-21T09:36:00.590Z,95558.94
2022-09-21T09:38:32.398Z,95556.16
2022-09-21T09:41:16.683Z,95553.28
2022-09-21T09:43:53.880Z,95556.19
2022-09-21T09:46:31.284Z,95547.25
2022-09-21T09:49:15.901Z,95550.59
2022-09-21T09:51:45.280Z,95547.88
2022-09-21T09:54:15.712Z,95543.78
2022-09-21T09:56:44.100Z,95543.75
2022-09-21T09:59:17.272Z,95533.69
2022-09-21T10:01:50.585Z,95532.75
2022-09-21T10:04:18.139Z,95528.44
2022-09-21T10:06:46.644Z,95527.53
2022-09-21T10:09:23.452Z,95513.31
2022-09-21T10:11:52.742Z,95511.53
2022-09-21T10:14:25.416Z,95518.50
2022-09-21T10:16:54.522Z,95510.84
2022-09-21T10:19:25.596Z,95510.16
2022-09-21T10:21:57.695Z,95514.22
2022-09-21T10:24:26.813Z,95508.41
2022-09-21T10:26:56.475Z,95509.34
2022-09-21T10:29:40.644Z,95499.50
2022-09-21T10:32:21.535Z,95502.53
2022-09-21T10:35:16.079Z,95496.78
2022-09-21T10:37:45.447Z,95492.09
2022-09-21T10:40:24.379Z,95496.75
2022-09-21T10:42:55.388Z,95489.28
2022-09-21T10:45:25.127Z,95481.72
2022-09-21T10:47:55.252Z,95483.97
2022-09-21T10:50:27.001Z,95490.88
2022-09-21T10:52:58.669Z,95482.03
2022-09-21T10:55:28.119Z,95473.56
2022-09-21T10:57:57.366Z,95470.72
2022-09-21T11:00:37.111Z,95475.31
2022-09-21T11:03:31.527Z,95477.72
2022-09-21T11:06:04.726Z,95480.81
2022-09-21T11:08:36.148Z,95471.91
2022-09-21T11:11:25.799Z,95475.13
2022-09-21T11:14:01.414Z,95468.31
2022-09-21T11:16:34.929Z,95466.22
2022-09-21T11:19:11.704Z,95460.06
2022-09-21T11:21:44.787Z,95459.66
2022-09-21T11:24:21.140Z,95463.03
2022-09-21T11:26:54.744Z,95459.78
2022-09-21T11:29:29.203Z,95454.88
2022-09-21T11:32:19.314Z,95444.16
2022-09-21T11:35:18.619Z,95437.00
2022-09-21T11:37:54.595Z,95443.94
2022-09-21T11:40:36.669Z,95438.66
2022-09-21T11:43:19.805Z,95438.53
2022-09-21T11:46:01.480Z,95436.22
2022-09-21T11:48:44.538Z,95438.59
2022-09-21T11:51:38.393Z,95427.88
2022-09-21T11:54:40.783Z,95422.13
2022-09-21T11:57:19.060Z,95420.47
2022-09-21T12:00:07.941Z,95419.03
2022-09-21T12:03:06.684Z,95413.16
2022-09-21T12:05:38.885Z,95417.66
2022-09-21T12:08:38.426Z,95417.94
2022-09-21T12:11:14.631Z,95415.19
2022-09-21T12:13:50.566Z,95420.34
2022-09-21T12:16:25.993Z,95408.28
2022-09-21T12:19:04.413Z,95411.13
2022-09-21T12:21:35.316Z,95407.19
2022-09-21T12:24:12.539Z,95407.84
2022-09-21T12:26:42.887Z,95400.53
2022-09-21T12:29:16.159Z,95406.28
2022-09-21T12:31:48.353Z,95398.63
2022-09-21T12:34:20.855Z,95397.53
2022-09-21T12:36:58.510Z,95401.00
2022-09-21T12:39:29.020Z,95397.22
2022-09-21T12:42:01.973Z,95388.34
2022-09-21T12:44:35.942Z,95390.81
2022-09-21T12:47:12.012Z,95393.56
2022-09-21T12:49:43.405Z,95390.88
2022-09-21T12:52:18.164Z,95394.84
2022-09-21T12:54:52.430Z,95387.69
2022-09-21T12:57:53.519Z,95393.09
2022-09-21T13:00:20.803Z,95393.03
2022-09-21T13:02:54.575Z,95394.97
2022-09-21T13:05:34.536Z,95392.19
2022-09-21T13:08:10.207Z,95385.94
2022-09-21T13:10:51.695Z,95394.47
2022-09-21T13:13:33.260Z,95382.75
2022-09-21T13:16:01.777Z,95388.31
2022-09-21T13:18:36.314Z,95381.59
2022-09-21T13:21:18.711Z,95382.41
2022-09-21T13:23:54.956Z,95387.44
2022-09-21T13:26:33.405Z,95389.38
2022-09-21T13:29:21.656Z,95387.03
2022-09-21T13:31:58.070Z,95370.69
2022-09-21T13:34:28.397Z,95377.19
2022-09-21T13:37:25.264Z,95376.41
2022-09-21T13:40:38.741Z,95368.72
2022-09-21T13:43:46.610Z,95373.31
2022-09-21T13:46:48.822Z,95376.22
2022-09-21T13:49:21.568Z,95374.53
2022-09-21T13:51:57.362Z,95378.44
2022-09-21T13:54:28.921Z,95379.28
2022-09-21T13:57:18.113Z,95376.53
2022-09-21T13:59:49.325Z,95368.53
2022-09-21T14:02:31.650Z,95365.56
2022-09-21T14:05:05.073Z,95377.38
2022-09-21T14:07:33.635Z,95367.03
2022-09-21T14:10:06.002Z,95369.69
2022-09-21T14:12:38.696Z,95370.28
2022-09-21T14:15:30.785Z,95363.13
2022-09-21T14:18:20.973Z,95362.09
2022-09-21T14:21:10.623Z,95366.69
2022-09-21T14:23:38.713Z,95361.38
2022-09-21T14:26:32.904Z,95361.16
2022-09-21T14:29:08.309Z,95358.31
2022-09-21T14:31:39.082Z,95363.94
2022-09-21T14:34:12.030Z,95361.88
2022-09-21T14:36:43.166Z,95357.09
2022-09-21T14:39:19.001Z,95367.53
2022-09-21T14:41:52.316Z,95371.34
2022-09-21T14:44:21.994Z,95362.34
2022-09-21T14:47:00.943Z,95354.38
2022-09-21T14:49:40.903Z,95357.03
2022-09-21T14:52:31.173Z,95362.16
2022-09-21T14:55:11.794Z,95358.16
2022-09-21T14:58:10.287Z,95359.25
2022-09-21T15:00:39.622Z,95356.91
2022-09-21T15:03:39.158Z,95356.91
2022-09-21T15:06:38.672Z,95356.38
2022-09-21T15:09:45.830Z,95357.78
2022-09-21T15:12:17.299Z,95352.22
2022-09-21T15:14:48.477Z,95346.66
2022-09-21T15:17:24.291Z,95352.78
2022-09-21T15:19:51.528Z,95346.66
2022-09-21T15:22:20.856Z,95350.63
2022-09-21T15:24:52.894Z,95348.22
2022-09-21T15:27:23.124Z,95354.38
2022-09-21T15:29:58.467Z,95345.38
2022-09-21T15:32:35.418Z,95352.59
2022-09-21T15:35:04.653Z,95361.09
2022-09-21T15:37:36.098Z,95357.69
2022-09-21T15:40:05.388Z,95360.66
2022-09-21T15:42:35.051Z,95361.28
2022-09-21T15:45:14.944Z,95357.31
2022-09-21T15:47:44.961Z,95360.03
2022-09-21T15:50:13.861Z,95352.59
2022-09-21T15:52:46.007Z,95357.34
2022-09-21T15:55:21.237Z,95355.50
2022-09-21T15:57:50.206Z,95359.81
2022-09-21T16:00:27.212Z,95358.00
2022-09-21T16:02:58.752Z,95360.94
2022-09-21T16:05:25.638Z,95364.94
2022-09-21T16:08:05.159Z,95364.44
2022-09-21T16:10:38.403Z,95366.81
2022-09-21T16:13:30.157Z,95360.97
2022-09-21T16:16:03.001Z,95374.28
2022-09-21T16:18:35.652Z,95372.19
2022-09-21T16:21:09.387Z,95367.16
2022-09-21T16:23:39.355Z,95373.81
2022-09-21T16:26:06.885Z,95379.41
2022-09-21T16:28:39.569Z,95376.50
2022-09-21T16:31:28.608Z,95380.47
2022-09-21T16:34:01.592Z,95374.91
2022-09-21T16:36:43.678Z,95384.47
2022-09-21T16:39:15.478Z,95385.81
2022-09-21T16:41:48.296Z,95384.50
2022-09-21T16:44:20.745Z,95377.31
2022-09-21T16:46:54.076Z,95389.81
2022-09-21T16:49:25.745Z,95380.81
2022-09-21T16:51:55.893Z,95385.59
2022-09-21T16:54:25.531Z,95388.25
2022-09-21T16:56:54.352Z,95390.38
2022-09-21T16:59:23.284Z,95398.34
2022-09-21T17:01:56.359Z,95386.38
2022-09-21T17:04:29.918Z,95394.34
2022-09-21T17:06:58.293Z,95394.88
2022-09-21T17:09:29.778Z,95396.75
2022-09-21T17:12:00.398Z,95388.50
2022-09-21T17:14:28.176Z,95390.88
2022-09-21T17:16:58.493Z,95395.94
2022-09-21T17:19:27.761Z,95398.84
2022-09-21T17:21:54.659Z,95394.34
2022-09-21T17:24:45.842Z,95390.34
2022-09-21T17:27:09.169Z,95395.94
2022-09-21T17:29:39.941Z,95391.13
2022-09-21T17:32:11.255Z,95391.91
2022-09-21T17:34:37.905Z,95392.69
2022-09-21T17:37:04.567Z,95390.59
2022-09-21T17:39:31.192Z,95393.50
2022-09-21T17:42:02.364Z,95391.09
2022-09-21T17:44:47.842Z,95398.81
2022-09-21T17:47:23.168Z,95400.09
2022-09-21T17:49:50.873Z,95411.75
2022-09-21T17:52:38.630Z,95406.94
2022-09-21T17:55:08.425Z,95416.50
2022-09-21T17:57:49.942Z,95409.88
2022-09-21T18:00:20.524Z,95417.81
2022-09-21T18:02:49.639Z,95415.13
2022-09-21T18:05:22.906Z,95419.34
2022-09-21T18:07:50.999Z,95420.66
2022-09-21T18:10:18.919Z,95414.50
2022-09-21T18:13:19.333Z,95427.22
2022-09-21T18:15:56.624Z,95422.13
2022-09-21T18:18:43.393Z,95419.44
2022-09-21T18:21:16.998Z,95426.31
2022-09-21T18:23:54.857Z,95422.00
2022-09-21T18:26:23.376Z,95425.69
2022-09-21T18:28:57.140Z,95421.69
2022-09-21T18:31:36.638Z,95423.00
2022-09-21T18:34:18.181Z,95424.03
2022-09-21T18:36:52.662Z,95424.50
2022-09-21T18:39:32.854Z,95422.03
2022-09-21T18:42:13.548Z,95427.78
2022-09-21T18:44:49.860Z,95437.56
2022-09-21T18:47:22.441Z,95439.09
2022-09-21T18:49:59.109Z,95439.59
2022-09-21T18:52:36.425Z,95431.59
2022-09-21T18:55:17.924Z,95432.38
2022-09-21T18:57:45.631Z,95437.63
2022-09-21T19:00:15.113Z,95431.78
2022-09-21T19:02:59.037Z,95430.66
2022-09-21T19:05:33.209Z,95434.63
2022-09-21T19:08:09.270Z,95429.81
2022-09-21T19:10:38.832Z,95439.34
2022-09-21T19:13:32.884Z,95434.53
2022-09-21T19:16:11.734Z,95434.22
2022-09-21T19:18:47.185Z,95442.69
2022-09-21T19:21:26.961Z,95441.03
2022-09-21T19:24:05.828Z,95438.06
2022-09-21T19:26:42.741Z,95439.38
2022-09-21T19:29:30.090Z,95442.28
2022-09-21T19:31:57.515Z,95438.50
2022-09-21T19:34:24.500Z,95439.50
2022-09-21T19:36:52.768Z,95436.00
2022-09-21T19:39:20.096Z,95437.53
2022-09-21T19:42:02.698Z,95432.97
2022-09-21T19:44:45.291Z,95445.13
2022-09-21T19:47:19.197Z,95445.06
2022-09-21T19:49:50.125Z,95445.56
2022-09-21T19:52:22.212Z,95441.78
2022-09-21T19:55:07.935Z,95446.22
2022-09-21T19:57:54.725Z,95448.25
2022-09-21T20:00:24.023Z,95443.44
2022-09-21T20:03:02.782Z,95446.03
2022-09-21T20:05:38.388Z,95449.41
2022-09-21T20:08:16.057Z,95445.84
2022-09-21T20:10:58.683Z,95447.41
2022-09-21T20:13:36.574Z,95445.22
2022-09-21T20:16:23.155Z,95443.56
2022-09-21T20:18:58.968Z,95443.47
2022-09-21T20:21:31.820Z,95436.22
2022-09-21T20:24:02.256Z,95437.44
2022-09-21T20:26:30.147Z,95437.81
2022-09-21T20:28:58.019Z,95437.91
2022-09-21T20:31:26.390Z,95437.75
2022-09-21T20:33:53.045Z,95435.97
2022-09-21T20:36:19.682Z,95447.97
2022-09-21T20:38:46.411Z,95445.25
2022-09-21T20:41:18.369Z,95443.88
2022-09-21T20:43:45.017Z,95446.50
2022-09-21T20:46:11.979Z,95435.63
2022-09-21T20:48:38.823Z,95446.09
2022-09-21T20:51:06.570Z,95448.53
2022-09-21T20:53:34.473Z,95447.94
2022-09-21T20:56:02.271Z,95450.81
2022-09-21T20:58:30.552Z,95443.06
2022-09-21T21:01:05.255Z,95445.81
2022-09-21T21:03:32.055Z,95446.31
2022-09-21T21:06:08.400Z,95449.75
2022-09-21T21:08:35.901Z,95446.22
2022-09-21T21:11:02.940Z,95457.03
2022-09-21T21:13:32.425Z,95453.00
2022-09-21T21:16:00.866Z,95455.31
2022-09-21T21:18:27.949Z,95458.66
2022-09-21T21:20:54.827Z,95456.25
2022-09-21T21:23:21.462Z,95456.72
2022-09-21T21:25:49.003Z,95451.34
2022-09-21T21:28:15.734Z,95458.38
2022-09-21T21:30:44.671Z,95455.50
2022-09-21T21:33:11.422Z,95459.28
2022-09-21T21:35:38.065Z,95453.91
2022-09-21T21:38:04.674Z,95456.44
2022-09-21T21:40:31.487Z,95454.28
2022-09-21T21:42:58.182Z,95454.38
2022-09-21T21:45:24.857Z,95455.53
2022-09-21T21:47:54.549Z,95456.94
2022-09-21T21:50:21.465Z,95448.91
2022-09-21T21:52:48.135Z,95458.53
2022-09-21T21:55:15.416Z,95454.53
2022-09-21T21:57:42.096Z,95455.78
2022-09-21T22:00:10.286Z,95462.06
2022-09-21T22:02:37.054Z,95463.13
2022-09-21T22:05:06.546Z,95458.66
2022-09-21T22:07:33.237Z,95452.47
2022-09-21T22:09:59.870Z,95450.84
2022-09-21T22:12:26.768Z,95454.19
2022-09-21T22:14:53.383Z,95449.59
2022-09-21T22:17:20.530Z,95449.81
2022-09-21T22:19:47.325Z,95439.75
2022-09-21T22:22:15.610Z,95449.47
2022-09-21T22:24:42.293Z,95449.94
2022-09-21T22:27:08.996Z,95447.75
2022-09-21T22:29:36.174Z,95451.06
2022-09-21T22:32:03.364Z,95449.09
2022-09-21T22:34:30.792Z,95444.28
2022-09-21T22:36:58.915Z,95448.41
2022-09-21T22:39:28.033Z,95452.66
2022-09-21T22:41:54.701Z,95450.25
2022-09-21T22:44:21.561Z,95445.44
2022-09-21T22:46:48.184Z,95453.19
2022-09-21T22:49:14.819Z,95447.59
2022-09-21T22:51:41.947Z,95448.47
2022-09-21T22:54:08.984Z,95448.44
2022-09-21T22:56:37.009Z,95447.97
2022-09-21T22:59:05.580Z,95446.22
2022-09-21T23:01:34.150Z,95446.53
2022-09-21T23:04:02.686Z,95447.19
2022-09-21T23:06:33.218Z,95442.00
2022-09-21T23:09:02.191Z,95441.41
2022-09-21T23:11:30.620Z,95438.44
2022-09-21T23:13:59.380Z,95440.69
2022-09-21T23:16:27.881Z,95440.13
2022-09-21T23:18:55.372Z,95443.19
2022-09-21T23:21:24.653Z,95437.78
2022-09-21T23:23:54.907Z,95434.44
2022-09-21T23:26:24.365Z,95438.63
2022-09-21T23:28:51.653Z,95433.06
2022-09-21T23:31:22.151Z,95430.72
2022-09-21T23:33:50.664Z,95422.25
2022-09-21T23:36:19.900Z,95428.75
2022-09-21T23:38:47.347Z,95423.16
2022-09-21T23:41:15.937Z,95419.78
2022-09-21T23:43:43.973Z,95414.38
2022-09-21T23:46:12.906Z,95422.69
2022-09-21T23:48:42.397Z,95423.94
2022-09-21T23:51:09.326Z,95417.28
2022-09-21T23:53:36.610Z,95420.13
2022-09-21T23:56:04.671Z,95420.13
2022-09-21T23:58:32.185Z,95421.91
